createdAt,value
2022-10-29T00:01:08.507Z,16.13
2022-10-29T00:03:37.741Z,12.73
2022-10-29T00:06:08.412Z,12.55
2022-10-29T00:08:38.363Z,10.68
2022-10-29T00:11:08.370Z,12.95
2022-10-29T00:13:38.683Z,13.48
2022-10-29T00:16:08.406Z,9.75
2022-10-29T00:18:36.739Z,11.43
2022-10-29T00:21:06.721Z,12.93
2022-10-29T00:23:35.257Z,10.20
2022-10-29T00:26:04.563Z,10.50
2022-10-29T00:28:32.800Z,11.13
2022-10-29T00:31:05.567Z,8.88
2022-10-29T00:33:33.793Z,9.80
2022-10-29T00:36:05.172Z,8.48
2022-10-29T00:38:34.369Z,7.97
2022-10-29T00:41:03.101Z,10.98
2022-10-29T00:43:31.422Z,9.43
2022-10-29T00:46:02.421Z,13.90
2022-10-29T00:48:35.988Z,9.50
2022-10-29T00:51:06.680Z,9.80
2022-10-29T00:53:39.449Z,10.95
2022-10-29T00:56:08.497Z,8.40
2022-10-29T00:58:36.940Z,7.40
2022-10-29T01:01:05.318Z,8.13
2022-10-29T01:03:35.328Z,11.35
2022-10-29T01:06:04.902Z,9.98
2022-10-29T01:08:33.021Z,7.00
2022-10-29T01:11:11.972Z,7.35
2022-10-29T01:13:55.414Z,7.00
2022-10-29T01:16:32.345Z,8.55
2022-10-29T01:19:13.893Z,8.10
2022-10-29T01:21:45.367Z,9.35
2022-10-29T01:24:43.108Z,8.70
2022-10-29T01:27:49.465Z,8.70
2022-10-29T01:30:23.048Z,12.38
2022-10-29T01:33:01.176Z,11.23
2022-10-29T01:35:38.153Z,11.13
2022-10-29T01:38:13.305Z,10.05
2022-10-29T01:40:49.677Z,8.73
2022-10-29T01:43:24.479Z,11.85
2022-10-29T01:45:57.101Z,8.02
2022-10-29T01:48:33.362Z,9.50
2022-10-29T01:51:07.360Z,9.80
2022-10-29T01:53:38.081Z,8.98
2022-10-29T01:56:06.615Z,12.40
2022-10-29T01:58:37.994Z,13.25
2022-10-29T02:01:19.044Z,8.98
2022-10-29T02:03:58.662Z,9.48
2022-10-29T02:06:37.754Z,10.35
2022-10-29T02:09:16.106Z,8.00
2022-10-29T02:11:53.133Z,9.98
2022-10-29T02:14:27.177Z,9.35
2022-10-29T02:16:57.106Z,13.05
2022-10-29T02:19:30.985Z,7.95
2022-10-29T02:21:59.252Z,9.13
2022-10-29T02:24:27.428Z,11.13
2022-10-29T02:26:55.564Z,10.07
2022-10-29T02:29:23.685Z,10.20
2022-10-29T02:31:51.798Z,9.98
2022-10-29T02:34:20.065Z,8.30
2022-10-29T02:36:49.573Z,11.15
2022-10-29T02:39:17.701Z,8.27
2022-10-29T02:41:45.837Z,9.65
2022-10-29T02:44:14.057Z,10.00
2022-10-29T02:46:42.154Z,11.57
2022-10-29T02:49:10.242Z,12.30
2022-10-29T02:51:38.386Z,8.82
2022-10-29T02:54:07.982Z,9.90
2022-10-29T02:56:36.146Z,14.07
2022-10-29T02:59:06.472Z,11.50
2022-10-29T03:01:37.482Z,11.35
2022-10-29T03:04:05.913Z,9.32
2022-10-29T03:06:34.064Z,8.85
2022-10-29T03:09:02.192Z,10.00
2022-10-29T03:11:31.736Z,9.25
2022-10-29T03:13:59.899Z,12.88
2022-10-29T03:16:28.078Z,10.48
2022-10-29T03:18:56.258Z,11.50
2022-10-29T03:21:24.334Z,9.75
2022-10-29T03:23:52.424Z,8.82
2022-10-29T03:26:20.505Z,8.90
2022-10-29T03:28:50.242Z,11.10
2022-10-29T03:31:18.484Z,10.93
2022-10-29T03:33:46.662Z,13.85
2022-10-29T03:36:14.821Z,10.60
2022-10-29T03:38:43.047Z,13.20
2022-10-29T03:41:11.371Z,8.38
2022-10-29T03:43:40.202Z,12.88
2022-10-29T03:46:09.861Z,9.32
2022-10-29T03:48:38.040Z,11.45
2022-10-29T03:51:07.823Z,9.63
2022-10-29T03:53:38.075Z,10.30
2022-10-29T03:56:06.820Z,10.93
2022-10-29T03:58:34.916Z,12.85
2022-10-29T04:01:04.746Z,12.48
2022-10-29T04:03:35.748Z,10.55
2022-10-29T04:06:11.308Z,12.70
2022-10-29T04:08:39.663Z,10.27
2022-10-29T04:11:08.648Z,12.52
2022-10-29T04:13:36.807Z,13.35
2022-10-29T04:16:05.233Z,14.13
2022-10-29T04:18:34.784Z,12.50
2022-10-29T04:29:27.882Z,14.35
2022-10-29T04:31:55.999Z,12.02
2022-10-29T04:34:25.460Z,14.90
2022-10-29T04:36:53.713Z,11.95
2022-10-29T04:39:23.378Z,12.15
2022-10-29T04:41:51.735Z,11.55
2022-10-29T04:44:20.168Z,14.15
2022-10-29T04:46:48.371Z,12.10
2022-10-29T04:49:16.607Z,12.30
2022-10-29T04:51:46.226Z,15.45
2022-10-29T04:54:15.653Z,13.02
2022-10-29T04:56:43.994Z,12.10
2022-10-29T04:59:12.223Z,11.07
2022-10-29T05:01:40.403Z,12.77
2022-10-29T05:04:08.703Z,10.77
2022-10-29T05:06:36.909Z,12.15
2022-10-29T05:09:06.649Z,13.38
2022-10-29T05:11:34.883Z,17.35
2022-10-29T05:14:03.200Z,16.35
2022-10-29T05:16:31.317Z,14.68
2022-10-29T05:18:59.489Z,16.10
2022-10-29T05:21:27.698Z,18.58
2022-10-29T05:23:55.845Z,11.27
2022-10-29T05:26:25.478Z,17.88
2022-10-29T05:28:53.675Z,12.35
2022-10-29T05:31:21.781Z,10.35
2022-10-29T05:33:52.441Z,11.27
2022-10-29T05:36:23.861Z,16.48
2022-10-29T05:38:52.024Z,14.15
2022-10-29T05:41:20.218Z,17.80
2022-10-29T05:43:51.256Z,11.15
2022-10-29T05:46:19.635Z,12.93
2022-10-29T05:48:47.936Z,12.55
2022-10-29T05:51:16.070Z,16.42
2022-10-29T05:53:44.217Z,12.10
2022-10-29T05:56:12.369Z,14.90
2022-10-29T05:58:40.573Z,9.10
2022-10-29T06:01:11.224Z,9.52
2022-10-29T06:03:40.037Z,8.43
2022-10-29T06:06:08.885Z,9.38
2022-10-29T06:08:37.131Z,16.38
2022-10-29T06:11:05.961Z,8.95
2022-10-29T06:13:34.144Z,9.25
2022-10-29T06:16:02.653Z,13.38
2022-10-29T06:18:32.249Z,13.63
2022-10-29T06:21:00.845Z,10.07
2022-10-29T06:23:29.526Z,10.93
2022-10-29T06:26:00.285Z,11.95
2022-10-29T06:28:34.519Z,11.02
2022-10-29T06:31:03.190Z,11.05
2022-10-29T06:33:32.759Z,18.95
2022-10-29T06:36:01.553Z,11.00
2022-10-29T06:38:29.822Z,11.30
2022-10-29T06:40:58.026Z,11.93
2022-10-29T06:43:26.254Z,13.00
2022-10-29T06:45:54.388Z,13.23
2022-10-29T06:48:23.061Z,12.70
2022-10-29T06:50:52.841Z,15.23
2022-10-29T06:53:21.664Z,16.25
2022-10-29T06:55:49.767Z,13.93
2022-10-29T06:58:19.513Z,12.87
2022-10-29T07:00:48.233Z,16.73
2022-10-29T07:03:17.691Z,16.90
2022-10-29T07:05:46.145Z,13.67
2022-10-29T07:08:15.758Z,14.20
2022-10-29T07:10:43.937Z,13.53
2022-10-29T07:13:12.084Z,10.90
2022-10-29T07:15:40.249Z,13.20
2022-10-29T07:18:10.571Z,14.03
2022-10-29T07:20:40.315Z,10.10
2022-10-29T07:23:09.119Z,11.90
2022-10-29T07:25:40.028Z,10.37
2022-10-29T07:28:12.963Z,12.63
2022-10-29T07:30:42.039Z,9.83
2022-10-29T07:33:10.630Z,10.20
2022-10-29T07:35:39.070Z,13.73
2022-10-29T07:38:10.725Z,14.13
2022-10-29T07:40:47.313Z,12.63
2022-10-29T07:43:15.625Z,14.23
2022-10-29T07:45:45.768Z,17.80
2022-10-29T07:48:14.075Z,12.70
2022-10-29T07:50:42.251Z,13.00
2022-10-29T07:53:11.272Z,11.47
2022-10-29T07:55:40.872Z,11.37
2022-10-29T07:58:13.394Z,14.70
2022-10-29T08:00:42.451Z,10.70
2022-10-29T08:03:12.884Z,11.90
2022-10-29T08:05:42.934Z,16.23
2022-10-29T08:08:11.482Z,12.43
2022-10-29T08:10:41.078Z,14.67
2022-10-29T08:13:09.297Z,13.50
2022-10-29T08:15:37.607Z,12.80
2022-10-29T08:18:12.744Z,11.83
2022-10-29T08:20:40.949Z,12.47
2022-10-29T08:23:09.349Z,12.80
2022-10-29T08:25:41.525Z,13.63
2022-10-29T08:28:13.755Z,13.00
2022-10-29T08:30:44.124Z,12.93
2022-10-29T08:33:12.477Z,12.60
2022-10-29T08:35:40.617Z,13.37
2022-10-29T08:38:08.837Z,11.63
2022-10-29T08:40:44.431Z,12.33
2022-10-29T08:43:48.343Z,12.00
2022-10-29T08:46:22.036Z,15.70
2022-10-29T08:48:54.286Z,14.07
2022-10-29T08:51:25.397Z,12.90
2022-10-29T08:54:24.944Z,13.53
2022-10-29T08:56:47.196Z,19.83
2022-10-29T08:59:18.888Z,11.90
2022-10-29T09:01:47.266Z,12.83
2022-10-29T09:04:24.002Z,12.37
2022-10-29T09:07:05.201Z,12.97
2022-10-29T09:09:39.813Z,10.60
2022-10-29T09:12:34.021Z,10.50
2022-10-29T09:15:28.418Z,11.10
2022-10-29T09:18:10.494Z,13.70
2022-10-29T09:20:52.081Z,11.37
2022-10-29T09:23:33.084Z,9.57
2022-10-29T09:26:05.227Z,8.17
2022-10-29T09:28:48.873Z,8.40
2022-10-29T09:31:27.302Z,8.50
2022-10-29T09:34:01.651Z,11.40
2022-10-29T09:36:32.005Z,9.00
2022-10-29T09:39:03.557Z,12.20
2022-10-29T09:41:34.550Z,9.00
2022-10-29T09:44:08.752Z,9.30
2022-10-29T09:46:48.661Z,9.43
2022-10-29T09:49:32.448Z,10.67
2022-10-29T09:52:05.852Z,8.97
2022-10-29T09:54:34.807Z,8.70
2022-10-29T09:57:04.622Z,9.73
2022-10-29T09:59:37.902Z,7.77
2022-10-29T10:02:25.175Z,9.00
2022-10-29T10:04:56.974Z,8.40
2022-10-29T10:07:25.129Z,10.33
2022-10-29T10:09:57.865Z,10.10
2022-10-29T10:12:28.039Z,7.60
2022-10-29T10:15:04.424Z,8.10
2022-10-29T10:17:56.321Z,6.70
2022-10-29T10:20:31.623Z,6.00
2022-10-29T10:23:00.361Z,6.07
2022-10-29T10:25:35.189Z,6.60
2022-10-29T10:28:17.917Z,6.50
2022-10-29T10:30:46.777Z,5.67
2022-10-29T10:33:27.193Z,6.43
2022-10-29T10:35:56.146Z,6.03
2022-10-29T10:38:24.373Z,7.10
2022-10-29T10:40:57.437Z,7.17
2022-10-29T10:43:27.023Z,5.73
2022-10-29T10:45:59.367Z,6.60
2022-10-29T10:48:33.592Z,6.30
2022-10-29T10:51:24.860Z,6.37
2022-10-29T10:53:53.295Z,5.90
2022-10-29T10:56:23.791Z,5.43
2022-10-29T10:58:58.555Z,6.00
2022-10-29T11:01:32.814Z,7.90
2022-10-29T11:04:11.868Z,5.90
2022-10-29T11:06:43.237Z,5.90
2022-10-29T11:09:20.558Z,5.40
2022-10-29T11:11:58.886Z,5.87
2022-10-29T11:14:32.746Z,6.23
2022-10-29T11:17:03.215Z,5.83
2022-10-29T11:19:39.680Z,6.17
2022-10-29T11:22:18.033Z,5.30
2022-10-29T11:24:52.076Z,7.17
2022-10-29T11:27:29.343Z,5.77
2022-10-29T11:30:04.467Z,5.03
2022-10-29T11:32:46.555Z,3.80
2022-10-29T11:35:21.177Z,4.93
2022-10-29T11:37:56.824Z,4.30
2022-10-29T11:40:38.617Z,4.07
2022-10-29T11:43:12.302Z,3.87
2022-10-29T11:45:49.176Z,4.37
2022-10-29T11:48:27.065Z,4.10
2022-10-29T11:51:02.542Z,4.40
2022-10-29T11:53:47.453Z,4.57
2022-10-29T11:56:27.033Z,5.30
2022-10-29T11:59:03.172Z,5.70
2022-10-29T12:01:43.617Z,4.10
2022-10-29T12:04:24.533Z,5.03
2022-10-29T12:07:15.317Z,5.23
2022-10-29T12:10:01.105Z,5.00
2022-10-29T12:12:35.374Z,4.53
2022-10-29T12:15:13.833Z,7.43
2022-10-29T12:17:51.460Z,4.80
2022-10-29T12:20:28.949Z,4.43
2022-10-29T12:23:12.043Z,4.93
2022-10-29T12:25:55.770Z,7.87
2022-10-29T12:28:30.936Z,4.67
2022-10-29T12:31:15.335Z,5.57
2022-10-29T12:33:51.548Z,4.33
2022-10-29T12:36:27.805Z,4.03
2022-10-29T12:38:58.712Z,3.77
2022-10-29T12:41:31.079Z,3.13
2022-10-29T12:44:08.329Z,4.10
2022-10-29T12:46:42.293Z,4.20
2022-10-29T12:49:20.915Z,4.50
2022-10-29T12:51:54.493Z,5.80
2022-10-29T12:54:37.970Z,5.13
2022-10-29T12:57:07.972Z,5.77
2022-10-29T12:59:38.153Z,4.30
2022-10-29T13:02:31.224Z,4.60
2022-10-29T13:05:37.579Z,3.80
2022-10-29T13:08:35.945Z,4.30
2022-10-29T13:11:20.372Z,3.20
2022-10-29T13:13:57.432Z,3.60
2022-10-29T13:16:32.121Z,4.93
2022-10-29T13:19:25.385Z,3.83
2022-10-29T13:22:05.293Z,3.30
2022-10-29T13:24:34.013Z,2.93
2022-10-29T13:27:35.313Z,2.97
2022-10-29T13:30:22.648Z,3.67
2022-10-29T13:32:51.088Z,2.70
2022-10-29T13:35:41.753Z,4.40
2022-10-29T13:38:17.283Z,3.20
2022-10-29T13:41:11.949Z,2.83
2022-10-29T13:43:44.075Z,4.73
2022-10-29T13:46:47.656Z,2.67
2022-10-29T13:49:23.262Z,2.97
2022-10-29T13:51:56.383Z,6.47
2022-10-29T13:54:31.241Z,4.77
2022-10-29T13:57:01.258Z,4.00
2022-10-29T13:59:42.302Z,3.20
2022-10-29T14:02:22.879Z,3.03
2022-10-29T14:04:56.042Z,4.10
2022-10-29T14:07:31.778Z,2.93
2022-10-29T14:10:07.917Z,3.23
2022-10-29T14:12:39.479Z,3.57
2022-10-29T14:15:12.065Z,3.33
2022-10-29T14:17:40.509Z,3.47
2022-10-29T14:20:25.417Z,3.87
2022-10-29T14:22:53.887Z,3.73
2022-10-29T14:25:33.414Z,4.50
2022-10-29T14:28:26.016Z,5.93
2022-10-29T14:31:04.382Z,4.13
2022-10-29T14:33:34.816Z,4.83
2022-10-29T14:36:12.795Z,3.60
2022-10-29T14:38:44.479Z,9.30
2022-10-29T14:41:13.401Z,5.90
2022-10-29T14:43:42.135Z,3.93
2022-10-29T14:46:24.842Z,6.10
2022-10-29T14:49:00.425Z,3.40
2022-10-29T14:51:29.139Z,4.63
2022-10-29T14:54:03.201Z,4.40
2022-10-29T14:56:38.527Z,4.30
2022-10-29T14:59:15.408Z,7.67
2022-10-29T15:01:56.804Z,6.23
2022-10-29T15:04:32.062Z,5.00
2022-10-29T15:07:16.533Z,5.53
2022-10-29T15:09:47.249Z,5.00
2022-10-29T15:12:21.875Z,5.50
2022-10-29T15:14:51.588Z,6.60
2022-10-29T15:17:24.125Z,5.47
2022-10-29T15:19:55.600Z,7.30
2022-10-29T15:22:31.988Z,8.30
2022-10-29T15:25:02.026Z,6.27
2022-10-29T15:27:30.615Z,7.97
2022-10-29T15:29:59.200Z,9.13
2022-10-29T15:32:31.467Z,7.03
2022-10-29T15:35:00.953Z,9.40
2022-10-29T15:37:43.940Z,8.20
2022-10-29T15:40:15.174Z,7.90
2022-10-29T15:42:45.425Z,5.37
2022-10-29T15:45:22.681Z,11.27
2022-10-29T15:47:56.886Z,10.77
2022-10-29T15:50:28.132Z,11.73
2022-10-29T15:52:59.076Z,17.93
2022-10-29T15:55:29.872Z,9.43
2022-10-29T15:58:03.109Z,11.60
2022-10-29T16:00:32.375Z,15.03
2022-10-29T16:03:14.404Z,12.47
2022-10-29T16:05:43.914Z,12.73
2022-10-29T16:08:22.325Z,9.97
2022-10-29T16:10:50.704Z,14.87
2022-10-29T16:13:19.754Z,15.57
2022-10-29T16:15:47.968Z,14.07
2022-10-29T16:18:17.512Z,13.50
2022-10-29T16:20:46.246Z,14.57
2022-10-29T16:23:14.932Z,17.17
2022-10-29T16:25:43.358Z,13.63
2022-10-29T16:28:11.876Z,10.87
2022-10-29T16:33:14.613Z,12.83
2022-10-29T16:35:44.122Z,12.33
2022-10-29T16:38:12.582Z,18.37
2022-10-29T16:40:42.738Z,18.60
2022-10-29T16:43:11.147Z,15.33
2022-10-29T16:45:39.466Z,16.13
2022-10-29T16:48:08.045Z,14.00
2022-10-29T16:50:36.267Z,15.97
2022-10-29T16:53:08.301Z,13.57
2022-10-29T16:55:38.332Z,17.00
2022-10-29T16:58:07.640Z,23.33
2022-10-29T17:00:36.789Z,26.40
2022-10-29T17:03:09.966Z,20.07
2022-10-29T17:05:41.551Z,18.90
2022-10-29T17:08:12.182Z,25.30
2022-10-29T17:10:40.667Z,25.07
2022-10-29T17:13:11.234Z,17.37
2022-10-29T17:15:41.318Z,19.60
2022-10-29T17:18:09.492Z,21.77
2022-10-29T17:20:37.622Z,24.77
2022-10-29T17:23:05.830Z,26.77
2022-10-29T17:25:35.400Z,23.77
2022-10-29T17:28:03.785Z,29.43
2022-10-29T17:30:31.941Z,24.97
2022-10-29T17:33:00.565Z,25.83
2022-10-29T17:35:29.105Z,26.27
2022-10-29T17:37:57.247Z,25.03
2022-10-29T17:40:25.407Z,21.77
2022-10-29T17:42:55.379Z,32.13
2022-10-29T17:45:24.049Z,24.97
2022-10-29T17:47:56.328Z,18.40
2022-10-29T17:50:25.592Z,18.90
2022-10-29T17:52:54.185Z,23.95
2022-10-29T17:55:22.475Z,14.27
2022-10-29T17:57:50.635Z,19.50
2022-10-29T18:00:20.541Z,13.88
2022-10-29T18:02:50.794Z,16.58
2022-10-29T18:05:19.540Z,21.05
2022-10-29T18:07:47.721Z,17.45
2022-10-29T18:10:16.811Z,19.75
2022-10-29T18:12:45.145Z,22.23
2022-10-29T18:15:13.367Z,17.85
2022-10-29T18:17:43.040Z,19.17
2022-10-29T18:20:11.938Z,25.98
2022-10-29T18:22:40.087Z,39.03
2022-10-29T18:25:08.919Z,42.17
2022-10-29T18:27:37.093Z,29.70
2022-10-29T18:30:05.852Z,32.53
2022-10-29T18:32:34.080Z,34.33
2022-10-29T18:35:04.902Z,40.65
2022-10-29T18:37:33.109Z,31.48
2022-10-29T18:40:01.267Z,36.55
2022-10-29T18:42:30.428Z,38.63
2022-10-29T18:44:58.544Z,33.83
2022-10-29T18:47:26.655Z,35.20
2022-10-29T18:49:54.835Z,29.33
2022-10-29T18:52:24.353Z,33.33
2022-10-29T18:54:52.555Z,33.00
2022-10-29T18:57:20.734Z,36.40
2022-10-29T18:59:49.083Z,30.27
2022-10-29T19:02:17.856Z,32.35
2022-10-29T19:04:46.129Z,32.83
2022-10-29T19:07:14.293Z,28.25
2022-10-29T19:09:43.884Z,24.00
2022-10-29T19:12:13.109Z,23.63
2022-10-29T19:14:41.329Z,23.83
2022-10-29T19:17:09.492Z,24.10
2022-10-29T19:19:37.655Z,14.90
2022-10-29T19:22:05.784Z,17.23
2022-10-29T19:24:33.923Z,15.00
2022-10-29T19:27:03.568Z,16.75
2022-10-29T19:29:31.751Z,17.65
2022-10-29T19:31:59.912Z,17.90
2022-10-29T19:34:28.282Z,19.63
2022-10-29T19:36:56.545Z,22.75
2022-10-29T19:39:24.720Z,23.70
2022-10-29T19:41:52.860Z,19.25
2022-10-29T19:44:22.356Z,18.88
2022-10-29T19:46:51.127Z,21.20
2022-10-29T19:49:19.241Z,30.73
2022-10-29T19:51:48.245Z,24.98
2022-10-29T19:54:16.411Z,19.45
2022-10-29T19:56:44.805Z,21.15
2022-10-29T19:59:12.976Z,24.83
2022-10-29T20:01:43.834Z,25.20
2022-10-29T20:04:12.225Z,19.10
2022-10-29T20:06:40.416Z,17.25
2022-10-29T20:09:08.666Z,21.63
2022-10-29T20:11:36.869Z,23.27
2022-10-29T20:14:05.097Z,25.25
2022-10-29T20:16:33.416Z,26.13
2022-10-29T20:19:04.689Z,29.17
2022-10-29T20:21:32.842Z,24.13
2022-10-29T20:24:01.024Z,21.52
2022-10-29T20:26:29.142Z,23.02
2022-10-29T20:28:57.838Z,18.35
2022-10-29T20:31:31.664Z,27.05
2022-10-29T20:34:03.388Z,22.95
2022-10-29T20:36:33.155Z,21.17
2022-10-29T20:39:01.468Z,17.65
2022-10-29T20:41:30.494Z,21.15
2022-10-29T20:44:01.214Z,23.40
2022-10-29T20:46:29.661Z,27.13
2022-10-29T20:48:57.880Z,21.27
2022-10-29T20:51:28.034Z,20.35
2022-10-29T20:53:56.419Z,22.55
2022-10-29T20:56:27.020Z,17.15
2022-10-29T20:58:55.705Z,17.52
2022-10-29T21:01:25.783Z,17.13
2022-10-29T21:03:54.207Z,19.13
2022-10-29T21:06:22.934Z,19.73
2022-10-29T21:08:53.436Z,20.85
2022-10-29T21:11:23.386Z,24.30
2022-10-29T21:13:51.916Z,22.77
2022-10-29T21:16:22.354Z,25.70
2022-10-29T21:18:52.698Z,22.10
2022-10-29T21:21:20.920Z,24.05
2022-10-29T21:23:49.186Z,26.75
2022-10-29T21:26:20.948Z,25.52
2022-10-29T21:28:49.990Z,30.27
2022-10-29T21:31:18.916Z,23.92
2022-10-29T21:33:49.712Z,19.42
2022-10-29T21:36:18.102Z,19.15
2022-10-29T21:38:46.332Z,17.75
2022-10-29T21:41:14.504Z,20.15
2022-10-29T21:43:44.108Z,21.52
2022-10-29T21:46:12.400Z,22.55
2022-10-29T21:48:40.572Z,21.38
2022-10-29T21:51:11.473Z,20.50
2022-10-29T21:53:39.688Z,19.00
2022-10-29T21:56:11.167Z,18.02
2022-10-29T21:58:39.348Z,24.90
2022-10-29T22:01:10.844Z,22.00
2022-10-29T22:03:41.613Z,21.00
2022-10-29T22:06:13.346Z,22.20
2022-10-29T22:08:42.261Z,20.73
2022-10-29T22:11:11.277Z,23.30
2022-10-29T22:13:39.878Z,24.15
2022-10-29T22:16:10.719Z,23.92
2022-10-29T22:18:38.925Z,24.50
2022-10-29T22:21:09.223Z,21.40
2022-10-29T22:23:38.842Z,22.88
2022-10-29T22:26:07.030Z,24.00
2022-10-29T22:28:35.186Z,23.30
2022-10-29T22:31:05.186Z,20.48
2022-10-29T22:33:35.503Z,18.73
2022-10-29T22:36:09.061Z,17.67
2022-10-29T22:38:37.704Z,17.63
2022-10-29T22:41:07.249Z,19.52
2022-10-29T22:43:35.563Z,23.15
2022-10-29T22:46:04.382Z,18.02
2022-10-29T22:48:34.224Z,22.00
2022-10-29T22:51:04.189Z,19.02
2022-10-29T22:53:32.672Z,20.08
2022-10-29T22:56:01.389Z,19.90
2022-10-29T22:58:29.973Z,24.60
2022-10-29T23:01:06.150Z,30.15
2022-10-29T23:03:35.922Z,23.15
2022-10-29T23:06:06.143Z,23.40
2022-10-29T23:08:34.858Z,24.83
2022-10-29T23:11:06.310Z,22.35
2022-10-29T23:13:35.375Z,28.42
2022-10-29T23:16:03.504Z,26.92
2022-10-29T23:18:31.669Z,22.92
2022-10-29T23:21:02.665Z,26.20
2022-10-29T23:23:31.437Z,23.73
2022-10-29T23:26:02.351Z,25.27
2022-10-29T23:28:31.838Z,27.40
2022-10-29T23:31:01.536Z,19.80
2022-10-29T23:33:30.277Z,21.38
2022-10-29T23:36:04.418Z,22.38
2022-10-29T23:38:32.904Z,20.35
2022-10-29T23:41:01.415Z,28.00
2022-10-29T23:43:29.928Z,22.33
2022-10-29T23:45:58.456Z,22.10
2022-10-29T23:48:26.840Z,25.33
2022-10-29T23:50:56.437Z,20.30
2022-10-29T23:53:26.063Z,30.65
2022-10-29T23:55:54.306Z,20.40
2022-10-29T23:58:22.504Z,20.60
